Time;durP1;ratioP1;P1;durP2;ratioP2;P2;SDS_P1;SDS_P2;PMS_P1;PMS_P2;Temp;Humidity;BMP_temperature;BMP_pressure;BME280_temperature;BME280_humidity;BME280_pressure;Samples;Min_cycle;Max_cycle;Signal;HPM_P1;HPM_P2
2022/08/15 00:04:09;;;;;;;3.40;1.40;;;;;;;23.11;100.00;97317.63;15279770;19;20029;-74
2022/08/15 00:09:33;;;;;;;2.95;1.40;;;;;;;23.11;100.00;97316.81;15281758;19;20010;-75
2022/08/15 00:15:01;;;;;;;1.45;1.30;;;;;;;23.08;100.00;97310.75;15287503;19;20385;-75
2022/08/15 00:20:09;;;;;;;3.30;1.33;;;;;;;23.06;100.00;97301.97;15284906;19;20610;-75
2022/08/15 00:25:24;;;;;;;3.05;1.40;;;;;;;23.04;100.00;97298.66;15284848;19;20112;-75
2022/08/15 00:30:33;;;;;;;2.58;1.50;;;;;;;23.02;100.00;97295.34;15283616;19;20010;-75
2022/08/15 00:35:58;;;;;;;4.20;1.40;;;;;;;22.98;100.00;97286.00;15284641;19;20010;-75
2022/08/15 00:46:44;;;;;;;1.95;1.52;;;;;;;22.94;100.00;97287.63;15288766;19;20382;-73
2022/08/15 00:51:53;;;;;;;2.20;1.38;;;;;;;22.89;100.00;97285.69;15345784;19;20010;-75
2022/08/15 00:57:03;;;;;;;2.20;1.50;;;;;;;22.87;100.00;97287.06;15313093;19;20478;-76
2022/08/15 01:02:20;;;;;;;2.83;1.50;;;;;;;22.84;100.00;97284.84;15288527;19;20010;-75
2022/08/15 01:07:39;;;;;;;5.85;1.50;;;;;;;22.80;100.00;97278.25;15282296;19;20029;-75
2022/08/15 01:12:44;;;;;;;1.90;1.42;;;;;;;22.77;100.00;97285.09;15275232;19;20014;-75
2022/08/15 01:17:52;;;;;;;2.50;1.75;;;;;;;22.77;100.00;97274.94;15283620;19;20010;-75
2022/08/15 01:23:08;;;;;;;3.95;1.67;;;;;;;22.79;100.00;97274.69;15285218;19;20014;-75
2022/08/15 01:28:21;;;;;;;4.22;1.60;;;;;;;22.81;100.00;97266.16;15278843;19;20010;-75
2022/08/15 01:33:40;;;;;;;3.42;1.52;;;;;;;22.78;100.00;97273.84;15281255;19;20021;-76
2022/08/15 01:38:47;;;;;;;2.53;1.60;;;;;;;22.76;100.00;97270.53;15285137;19;20092;-76
2022/08/15 01:44:23;;;;;;;3.28;1.48;;;;;;;22.72;100.00;97263.94;15272552;19;20018;-74
2022/08/15 01:49:42;;;;;;;2.33;1.60;;;;;;;22.66;100.00;97262.28;15280143;19;20022;-75
2022/08/15 01:54:48;;;;;;;2.58;1.55;;;;;;;22.58;100.00;97262.78;15283045;19;20463;-75
2022/08/15 02:00:17;;;;;;;3.58;1.58;;;;;;;22.37;100.00;97270.91;15278215;19;20073;-75
2022/08/15 02:05:23;;;;;;;3.10;1.55;;;;;;;22.32;100.00;97268.97;15280588;19;20017;-75
2022/08/15 02:10:34;;;;;;;;;;;;;;;22.27;100.00;97270.84;15280129;19;20015;-73
2022/08/15 02:15:43;;;;;;;1.80;1.40;;;;;;;22.19;100.00;97261.19;15271995;19;19919;-73
2022/08/15 02:20:50;;;;;;;2.63;1.50;;;;;;;22.17;100.00;97266.94;15281458;19;20451;-74
2022/08/15 02:25:56;;;;;;;1.60;1.50;;;;;;;22.14;100.00;97261.16;15303272;19;20014;-77
2022/08/15 02:31:10;;;;;;;1.98;1.52;;;;;;;22.07;100.00;97258.66;15316495;19;20041;-73
2022/08/15 02:36:19;;;;;;;3.92;1.65;;;;;;;21.97;100.00;97253.09;15361345;19;19999;-73
2022/08/15 02:41:42;;;;;;;5.60;1.50;;;;;;;21.90;100.00;97258.81;15287615;19;20023;-76
2022/08/15 02:46:55;;;;;;;3.55;2.10;;;;;;;21.84;100.00;97255.22;15289022;19;20014;-76
2022/08/15 02:52:13;;;;;;;1.77;1.50;;;;;;;21.76;100.00;97260.34;15282429;19;20041;-75
2022/08/15 02:57:26;;;;;;;2.15;1.50;;;;;;;21.69;100.00;97257.84;15294373;19;20344;-74
2022/08/15 03:02:50;;;;;;;2.28;1.50;;;;;;;21.67;100.00;97260.84;15290739;19;20022;-76
2022/08/15 03:07:55;;;;;;;2.95;1.70;;;;;;;21.64;100.00;97255.88;15291674;19;20010;-76
2022/08/15 03:13:03;;;;;;;2.85;1.52;;;;;;;21.58;100.00;97258.84;15287709;19;20024;-75
2022/08/15 03:18:13;;;;;;;2.05;1.65;;;;;;;21.53;100.00;97268.66;15287609;19;20108;-74
2022/08/15 03:23:36;;;;;;;3.50;1.60;;;;;;;21.44;100.00;97252.94;15286840;19;20010;-75
2022/08/15 03:28:47;;;;;;;4.13;1.75;;;;;;;21.35;100.00;97255.31;15290277;19;20537;-74
2022/08/15 03:34:13;;;;;;;4.22;1.70;;;;;;;21.28;100.00;97251.97;15283649;19;20533;-75
2022/08/15 03:39:19;;;;;;;1.85;1.48;;;;;;;21.18;100.00;97244.47;15289055;19;20022;-75
2022/08/15 03:44:26;;;;;;;2.63;1.50;;;;;;;21.12;100.00;97254.56;15285313;19;20050;-75
2022/08/15 03:49:39;;;;;;;2.65;1.60;;;;;;;21.08;100.00;97250.72;15283290;19;20033;-75
2022/08/15 03:55:07;;;;;;;2.40;1.77;;;;;;;21.02;100.00;97247.09;15288368;19;20010;-74
2022/08/15 04:00:25;;;;;;;2.70;1.90;;;;;;;20.97;100.00;97240.72;15287631;19;20018;-75
2022/08/15 04:05:37;;;;;;;3.05;1.70;;;;;;;20.91;100.00;97248.88;15288471;19;20041;-75
2022/08/15 04:10:49;;;;;;;3.20;1.73;;;;;;;20.86;100.00;97251.56;15288107;19;20118;-77
2022/08/15 04:16:00;;;;;;;2.33;1.90;;;;;;;20.82;100.00;97250.44;15290896;19;20350;-75
2022/08/15 04:21:28;;;;;;;4.63;1.83;;;;;;;20.80;100.00;97244.38;15275644;19;20416;-77
2022/08/15 04:26:33;;;;;;;2.40;1.80;;;;;;;20.78;100.00;97249.28;15285244;19;20010;-78
2022/08/15 04:31:38;;;;;;;2.35;1.90;;;;;;;20.74;100.00;97242.66;15284373;19;20767;-78
2022/08/15 04:36:46;;;;;;;4.00;1.90;;;;;;;20.72;100.00;97244.81;15291379;19;20006;-77
2022/08/15 04:41:54;;;;;;;2.13;1.80;;;;;;;20.72;100.00;97239.34;15289081;19;20018;-76
2022/08/15 04:47:00;;;;;;;4.03;1.90;;;;;;;20.74;100.00;97248.13;15279080;19;20013;-76
2022/08/15 04:52:16;;;;;;;2.90;1.90;;;;;;;20.76;100.00;97238.59;15287265;19;20025;-76
2022/08/15 04:57:25;;;;;;;3.92;1.80;;;;;;;20.75;100.00;97236.94;15284461;19;20097;-76
2022/08/15 05:02:34;;;;;;;1.70;1.60;;;;;;;20.78;100.00;97241.06;15292511;19;20073;-77
2022/08/15 05:08:02;;;;;;;2.58;1.90;;;;;;;20.85;100.00;97241.72;15289378;19;20078;-77
2022/08/15 05:13:17;;;;;;;4.68;1.83;;;;;;;20.95;100.00;97238.22;15286444;19;20023;-78
2022/08/15 05:18:23;;;;;;;3.67;1.88;;;;;;;21.06;100.00;97231.78;15288377;19;20014;-77
2022/08/15 05:23:32;;;;;;;2.30;1.70;;;;;;;21.23;100.00;97228.91;15291825;19;20041;-75
2022/08/15 05:28:59;;;;;;;2.23;1.60;;;;;;;21.44;100.00;97233.75;15289114;19;20015;-76
2022/08/15 05:34:07;;;;;;;5.90;1.65;;;;;;;21.63;100.00;97223.25;15292463;19;20021;-77
2022/08/15 05:39:28;;;;;;;4.18;1.80;;;;;;;21.84;100.00;97226.97;15288338;19;20483;-77
2022/08/15 05:44:50;;;;;;;2.60;1.70;;;;;;;21.99;100.00;97223.50;15296842;19;20018;-78
2022/08/15 05:50:01;;;;;;;3.97;1.77;;;;;;;22.16;100.00;97228.81;15298401;19;20386;-78
2022/08/15 05:55:24;;;;;;;3.22;1.60;;;;;;;22.28;100.00;97218.44;15305246;19;20014;-79
2022/08/15 06:00:31;;;;;;;3.45;1.60;;;;;;;22.39;100.00;97222.06;15330211;19;20098;-78
2022/08/15 06:05:41;;;;;;;7.63;1.90;;;;;;;22.50;100.00;97222.16;15331172;19;20096;-79
2022/08/15 06:10:54;;;;;;;3.03;1.73;;;;;;;22.58;100.00;97224.38;15328900;19;20085;-79
2022/08/15 06:16:06;;;;;;;5.38;1.83;;;;;;;22.69;100.00;97215.06;15323171;19;20006;-79
2022/08/15 06:21:41;;;;;;;2.28;1.77;;;;;;;22.83;100.00;97212.63;15313721;19;20014;-79
2022/08/15 06:27:01;;;;;;;4.03;1.70;;;;;;;22.98;100.00;97211.88;15301459;19;20014;-79
2022/08/15 06:32:15;;;;;;;2.30;1.60;;;;;;;23.15;100.00;97205.28;15306662;19;20372;-79
2022/08/15 06:37:36;;;;;;;3.50;1.75;;;;;;;23.33;100.00;97210.28;15313378;19;20078;-80
2022/08/15 06:43:09;;;;;;;3.67;1.60;;;;;;;23.52;100.00;97209.72;15323641;19;20280;-80
2022/08/15 06:48:44;;;;;;;4.05;1.65;;;;;;;23.74;100.00;97211.34;15319301;19;20018;-80
2022/08/15 06:54:17;;;;;;;3.80;1.63;;;;;;;23.92;100.00;97216.28;15319223;19;20046;-80
2022/08/15 06:59:58;;;;;;;3.70;1.85;;;;;;;24.07;100.00;97201.69;15318203;19;20370;-80
2022/08/15 07:05:17;;;;;;;3.03;1.60;;;;;;;24.27;100.00;97209.06;15309015;19;20010;-80
2022/08/15 07:10:41;;;;;;;2.97;1.60;;;;;;;24.44;100.00;97196.88;15306202;19;20364;-79
2022/08/15 07:16:16;;;;;;;2.72;1.63;;;;;;;24.60;100.00;97201.22;15307486;19;20042;-80
2022/08/15 07:21:25;;;;;;;3.90;1.45;;;;;;;24.77;100.00;97205.56;15307572;19;20053;-79
2022/08/15 07:26:55;;;;;;;2.72;1.52;;;;;;;24.86;100.00;97203.88;15298909;19;20027;-78
2022/08/15 07:32:12;;;;;;;3.78;1.60;;;;;;;25.03;100.00;97191.63;15307140;19;20135;-79
2022/08/15 07:37:38;;;;;;;2.60;1.60;;;;;;;25.18;100.00;97197.03;15287271;19;20094;-78
2022/08/15 07:42:46;;;;;;;3.00;1.70;;;;;;;25.24;100.00;97193.13;15288390;19;20090;-78
2022/08/15 07:48:21;;;;;;;5.00;1.60;;;;;;;25.32;100.00;97193.63;15279733;19;20010;-77
2022/08/15 07:53:34;;;;;;;2.70;1.40;;;;;;;25.31;100.00;97192.81;15280589;19;20093;-77
2022/08/15 07:58:41;;;;;;;6.15;1.70;;;;;;;25.36;100.00;97194.69;15278739;19;20014;-78
2022/08/15 08:03:55;;;;;;;2.75;1.70;;;;;;;25.49;100.00;97191.31;15282097;19;20048;-78
2022/08/15 08:09:10;;;;;;;1.52;1.42;;;;;;;25.58;100.00;97187.94;15280347;19;20015;-78
2022/08/15 08:14:26;;;;;;;3.20;1.40;;;;;;;25.81;100.00;97186.31;15283970;19;20458;-79
2022/08/15 08:20:03;;;;;;;1.50;1.40;;;;;;;25.99;100.00;97195.81;15286540;19;20466;-79
2022/08/15 08:25:18;;;;;;;2.15;1.52;;;;;;;26.17;100.00;97193.44;15277251;19;20471;-78
2022/08/15 08:30:53;;;;;;;2.65;1.20;;;;;;;26.26;97.95;97189.72;15285070;19;20015;-79
2022/08/15 08:36:09;;;;;;;1.83;1.20;;;;;;;26.36;92.90;97183.28;15280972;19;20002;-78
2022/08/15 08:41:42;;;;;;;1.58;1.30;;;;;;;26.59;90.93;97183.53;15302139;19;20029;-78
2022/08/15 08:47:17;;;;;;;5.07;1.42;;;;;;;26.77;91.98;97182.72;15297422;19;20017;-78
2022/08/15 08:52:35;;;;;;;2.22;1.20;;;;;;;26.99;91.28;97177.75;15279022;19;20106;-78
2022/08/15 08:57:47;;;;;;;2.03;1.30;;;;;;;27.15;83.60;97178.34;15275681;19;20363;-78
2022/08/15 09:03:02;;;;;;;3.40;1.40;;;;;;;27.47;82.74;97176.75;15282534;19;20035;-78
2022/08/15 09:08:16;;;;;;;2.42;1.50;;;;;;;27.68;80.55;97180.81;15273485;19;20010;-79
2022/08/15 09:13:38;;;;;;;3.33;1.00;;;;;;;28.06;80.95;97176.22;15277055;19;20014;-78
2022/08/15 09:18:49;;;;;;;3.78;1.42;;;;;;;28.34;75.29;97174.34;15274621;19;20033;-78
2022/08/15 09:23:58;;;;;;;2.17;1.40;;;;;;;28.49;69.82;97164.88;15278705;19;20352;-79
2022/08/15 09:29:08;;;;;;;4.70;1.40;;;;;;;28.62;70.90;97170.72;15274906;19;20023;-77
2022/08/15 09:34:41;;;;;;;4.28;1.40;;;;;;;28.72;65.02;97173.28;15268378;19;20045;-78
2022/08/15 09:40:14;;;;;;;1.45;1.10;;;;;;;28.89;64.04;97154.03;15275130;19;20014;-79
2022/08/15 09:45:54;;;;;;;2.20;1.10;;;;;;;29.09;62.86;97156.66;15271482;19;20037;-78
2022/08/15 09:51:17;;;;;;;2.20;1.20;;;;;;;29.25;61.06;97137.69;15276359;19;20027;-78
2022/08/15 09:56:27;;;;;;;1.50;1.30;;;;;;;29.36;58.86;97137.16;15269954;19;20010;-77
2022/08/15 10:01:34;;;;;;;1.92;1.10;;;;;;;29.54;58.75;97128.13;15277887;19;20014;-77
2022/08/15 10:07:19;;;;;;;2.03;1.27;;;;;;;29.70;56.24;97117.41;15268957;19;20091;-78
2022/08/15 10:12:26;;;;;;;2.60;1.27;;;;;;;29.78;56.69;97116.63;15277815;19;20011;-77
2022/08/15 10:17:45;;;;;;;1.42;1.00;;;;;;;29.96;53.59;97112.00;15276324;19;20018;-79
2022/08/15 10:23:10;;;;;;;1.30;1.10;;;;;;;30.25;53.83;97119.78;15279973;19;20014;-78
2022/08/15 10:28:27;;;;;;;2.22;1.08;;;;;;;30.68;49.47;97109.91;15270708;19;20025;-78
2022/08/15 10:33:48;;;;;;;1.88;1.02;;;;;;;30.63;50.42;97101.75;15269002;19;20010;-78
2022/08/15 10:39:31;;;;;;;3.03;0.98;;;;;;;30.37;49.29;97096.94;15270930;19;20017;-79
2022/08/15 10:44:49;;;;;;;3.30;1.17;;;;;;;29.96;53.38;97117.56;15280078;19;20475;-78
2022/08/15 10:50:05;;;;;;;5.03;1.30;;;;;;;29.40;57.70;97122.66;15285211;19;20033;-78
2022/08/15 10:55:28;;;;;;;3.20;1.30;;;;;;;28.87;61.71;97136.91;15286897;19;20010;-77
2022/08/15 11:01:04;;;;;;;4.70;1.40;;;;;;;28.24;71.01;97161.53;15292261;19;20359;-79
2022/08/15 11:06:13;;;;;;;4.38;1.30;;;;;;;28.05;72.70;97171.84;15287257;19;20024;-79
2022/08/15 11:11:20;;;;;;;2.60;1.27;;;;;;;27.58;82.93;97161.59;15287433;19;20014;-78
2022/08/15 11:16:37;;;;;;;2.70;1.30;;;;;;;27.55;90.18;97159.47;15283762;19;20014;-80
2022/08/15 11:21:50;;;;;;;2.03;1.27;;;;;;;27.42;92.69;97144.44;15285228;19;20022;-79
2022/08/15 11:27:11;;;;;;;4.25;1.40;;;;;;;27.39;100.00;97156.13;15277808;19;20493;-77
2022/08/15 11:32:32;;;;;;;3.65;1.40;;;;;;;27.29;100.00;97157.09;15287569;19;20085;-77
2022/08/15 11:37:41;;;;;;;;;;;;;;;27.28;100.00;97158.22;15281858;19;20378;-78
2022/08/15 11:42:49;;;;;;;3.05;1.00;;;;;;;27.46;95.93;97159.34;15287411;19;19926;-79
2022/08/15 11:48:14;;;;;;;2.47;1.05;;;;;;;27.81;93.26;97157.06;15283620;19;20030;-75
2022/08/15 11:53:19;;;;;;;1.48;1.10;;;;;;;28.20;84.96;97160.47;15297891;19;20011;-77
2022/08/15 11:58:33;;;;;;;2.63;1.20;;;;;;;28.58;86.09;97160.25;15296361;19;20022;-78
2022/08/15 12:04:06;;;;;;;1.83;1.00;;;;;;;28.98;84.14;97148.56;15347338;19;20034;-76
2022/08/15 12:09:31;;;;;;;2.00;1.10;;;;;;;29.42;74.70;97143.38;15324516;19;20034;-77
2022/08/15 12:14:49;;;;;;;3.38;1.10;;;;;;;29.87;69.47;97127.78;15290932;19;20467;-78
2022/08/15 12:19:57;;;;;;;1.98;1.08;;;;;;;30.25;59.66;97124.53;15289498;19;20014;-77
2022/08/15 12:25:22;;;;;;;4.55;1.15;;;;;;;30.46;58.00;97126.69;15289265;19;20022;-78
2022/08/15 12:30:47;;;;;;;4.32;1.10;;;;;;;30.53;56.28;97119.53;15303250;19;20010;-77
2022/08/15 12:35:54;;;;;;;2.88;1.10;;;;;;;30.70;54.90;97106.78;15304981;19;20571;-77
2022/08/15 12:41:05;;;;;;;2.67;1.20;;;;;;;30.97;53.31;97102.06;15307442;19;20022;-77
2022/08/15 12:46:30;;;;;;;4.07;1.10;;;;;;;31.05;53.13;97102.06;15307092;19;20015;-77
2022/08/15 12:51:37;;;;;;;4.85;1.10;;;;;;;31.64;51.60;97095.09;15301140;19;20010;-78
2022/08/15 12:56:48;;;;;;;4.00;1.10;;;;;;;31.32;51.28;97093.69;15298720;19;20015;-79
2022/08/15 13:02:13;;;;;;;6.93;1.13;;;;;;;31.27;51.98;97102.25;15308866;19;20018;-77
2022/08/15 13:07:40;;;;;;;2.50;1.20;;;;;;;31.02;50.77;97111.06;15303427;19;20015;-76
2022/08/15 13:13:04;;;;;;;2.88;1.00;;;;;;;31.39;50.54;97094.03;15308318;19;20037;-78
2022/08/15 13:18:10;;;;;;;1.60;0.90;;;;;;;31.00;49.39;97104.19;15299948;19;20387;-78
2022/08/15 13:23:38;;;;;;;3.00;1.20;;;;;;;30.83;49.68;97097.47;15310377;19;20498;-79
2022/08/15 13:29:03;;;;;;;3.53;1.10;;;;;;;30.86;49.63;97098.81;15287116;19;20011;-79
2022/08/15 13:34:09;;;;;;;2.50;1.10;;;;;;;31.20;49.46;97097.19;15302263;19;20014;-76
2022/08/15 13:39:20;;;;;;;1.55;1.02;;;;;;;31.19;47.11;97079.66;15288223;19;20025;-79
2022/08/15 13:44:34;;;;;;;6.70;1.10;;;;;;;31.66;46.48;97080.84;15289815;19;20011;-78
2022/08/15 13:49:39;;;;;;;2.55;1.00;;;;;;;31.63;45.29;97089.88;15292222;19;20270;-79
2022/08/15 13:54:46;;;;;;;4.13;0.90;;;;;;;32.14;44.89;97078.84;15293962;19;20474;-79
2022/08/15 13:59:53;;;;;;;5.75;0.90;;;;;;;32.12;41.96;97092.28;15290153;19;20018;-78
2022/08/15 14:05:02;;;;;;;4.20;0.80;;;;;;;32.10;41.58;97101.00;15296925;19;20018;-78
2022/08/15 14:10:10;;;;;;;3.25;0.70;;;;;;;32.72;38.25;97090.28;15292567;19;20011;-79
2022/08/15 14:15:34;;;;;;;3.60;0.65;;;;;;;32.97;37.63;97089.63;15289529;19;20014;-78
2022/08/15 14:21:00;;;;;;;3.22;0.57;;;;;;;32.87;37.26;97111.19;15305785;19;20567;-79
2022/08/15 14:26:07;;;;;;;1.50;0.70;;;;;;;32.95;39.73;97109.47;15308281;19;20017;-80
2022/08/15 14:31:32;;;;;;;5.22;0.95;;;;;;;32.30;45.56;97108.94;15319552;19;20014;-80
2022/08/15 14:36:37;;;;;;;3.47;0.70;;;;;;;31.67;47.50;97104.75;15361468;19;20021;-76
2022/08/15 14:41:50;;;;;;;;;;;;;;;30.93;49.85;97109.44;15328302;19;20501;-78
2022/08/15 14:46:57;;;;;;;1.43;0.90;;;;;;;30.29;51.15;97103.28;15312608;19;20458;-79
2022/08/15 14:52:02;;;;;;;2.03;0.90;;;;;;;29.81;52.63;97111.25;15309784;19;20034;-77
2022/08/15 14:57:29;;;;;;;2.38;0.70;;;;;;;29.12;54.11;97131.88;15298724;19;20379;-77
2022/08/15 15:02:57;;;;;;;2.55;1.00;;;;;;;28.97;54.44;97133.06;15308993;19;20006;-77
2022/08/15 15:08:03;;;;;;;2.83;0.83;;;;;;;28.51;55.48;97143.25;15304208;19;20007;-79
2022/08/15 15:13:26;;;;;;;6.07;0.88;;;;;;;28.47;55.92;97136.66;15309888;19;20056;-78
2022/08/15 15:18:36;;;;;;;1.45;0.90;;;;;;;28.35;57.01;97130.84;15302642;19;20035;-78
2022/08/15 15:24:02;;;;;;;2.03;1.05;;;;;;;28.33;56.59;97141.41;15299267;19;20047;-76
2022/08/15 15:29:10;;;;;;;0.90;0.82;;;;;;;28.40;57.74;97150.94;15292243;19;20474;-74
2022/08/15 15:34:15;;;;;;;2.70;0.80;;;;;;;28.36;58.02;97129.72;15292695;19;20010;-74
2022/08/15 15:39:23;;;;;;;5.07;0.90;;;;;;;28.34;59.12;97157.72;15281978;19;20027;-76
2022/08/15 15:44:51;;;;;;;4.82;1.00;;;;;;;27.81;68.09;97178.38;15299039;19;20470;-76
2022/08/15 15:49:56;;;;;;;3.15;1.10;;;;;;;27.68;70.35;97182.75;15286365;19;20018;-76
2022/08/15 15:55:03;;;;;;;3.78;1.00;;;;;;;27.49;73.94;97196.63;15289078;19;20019;-76
2022/08/15 16:00:16;;;;;;;2.38;0.98;;;;;;;27.28;100.00;97185.88;15282676;19;20025;-75
2022/08/15 16:05:35;;;;;;;1.25;0.95;;;;;;;26.99;100.00;97184.09;15293435;19;20029;-77
2022/08/15 16:11:03;;;;;;;2.45;1.17;;;;;;;26.62;100.00;97174.66;15282228;19;20380;-76
2022/08/15 16:16:17;;;;;;;4.60;1.48;;;;;;;26.14;100.00;97165.31;15291304;19;20482;-76
2022/08/15 16:21:34;;;;;;;2.97;1.40;;;;;;;25.77;100.00;97176.97;15290261;19;20022;-74
2022/08/15 16:27:10;;;;;;;3.03;1.17;;;;;;;25.53;100.00;97178.59;15285963;19;20084;-73
2022/08/15 16:32:24;;;;;;;2.90;1.15;;;;;;;25.29;100.00;97185.94;15282773;19;20448;-73
2022/08/15 16:37:41;;;;;;;2.72;1.30;;;;;;;25.15;100.00;97177.50;15284475;19;20375;-74
2022/08/15 16:42:50;;;;;;;6.17;1.50;;;;;;;25.06;100.00;97182.81;15273951;19;20033;-73
2022/08/15 16:48:09;;;;;;;5.45;1.45;;;;;;;24.95;100.00;97189.50;15283058;19;20045;-74
2022/08/15 16:53:24;;;;;;;1.60;1.30;;;;;;;24.83;100.00;97193.41;15289625;19;20006;-73
2022/08/15 16:58:40;;;;;;;1.33;1.10;;;;;;;24.84;100.00;97200.56;15289223;19;20010;-73
2022/08/15 17:04:09;;;;;;;1.27;1.17;;;;;;;24.83;100.00;97220.13;15293106;19;20033;-72
2022/08/15 17:09:27;;;;;;;2.05;1.27;;;;;;;24.77;100.00;97214.66;15291797;19;20086;-72
2022/08/15 17:15:03;;;;;;;1.50;1.10;;;;;;;24.73;100.00;97218.25;15278510;19;20047;-73
2022/08/15 17:20:19;;;;;;;2.00;1.20;;;;;;;24.70;100.00;97221.56;15293780;19;20010;-76
2022/08/15 17:25:38;;;;;;;1.40;1.10;;;;;;;24.49;100.00;97227.16;15291420;19;20007;-73
2022/08/15 17:30:50;;;;;;;2.78;1.30;;;;;;;24.37;100.00;97235.72;15282420;19;20030;-73
2022/08/15 17:36:06;;;;;;;1.35;1.10;;;;;;;24.34;100.00;97230.78;15284605;19;20010;-74
2022/08/15 17:41:22;;;;;;;2.08;1.00;;;;;;;24.33;100.00;97245.66;15287591;19;20022;-74
2022/08/15 17:46:33;;;;;;;1.35;1.10;;;;;;;24.34;100.00;97257.47;15328104;19;20082;-73
2022/08/15 17:51:47;;;;;;;1.88;0.90;;;;;;;24.21;100.00;97259.72;15324357;19;20014;-73
2022/08/15 17:56:57;;;;;;;1.85;1.30;;;;;;;23.91;100.00;97272.41;15286885;19;20011;-73
2022/08/15 18:02:02;;;;;;;2.13;1.50;;;;;;;23.38;100.00;97275.41;15287486;19;20010;-73
2022/08/15 18:07:29;;;;;;;4.60;1.58;;;;;;;22.97;100.00;97287.09;15281293;19;20367;-74
2022/08/15 18:12:37;;;;;;;3.40;1.73;;;;;;;22.75;100.00;97298.28;15284398;19;20006;-74
2022/08/15 18:17:55;;;;;;;3.33;1.88;;;;;;;22.68;100.00;97306.75;15279429;19;20022;-73
2022/08/15 18:23:18;;;;;;;20.63;2.30;;;;;;;22.49;100.00;97324.78;15285488;19;20074;-74
2022/08/15 18:28:31;;;;;;;13.02;2.50;;;;;;;22.36;100.00;97326.03;15339007;19;20003;-74
2022/08/15 18:33:37;;;;;;;10.07;2.25;;;;;;;22.36;100.00;97321.38;15307568;19;20010;-74
2022/08/15 18:44:26;;;;;;;2.90;2.10;;;;;;;21.81;100.00;97340.75;15273530;19;20011;-73
2022/08/15 18:49:33;;;;;;;2.30;1.80;;;;;;;21.56;100.00;97352.25;15273810;19;20019;-73
2022/08/15 18:54:42;;;;;;;4.28;1.90;;;;;;;21.60;100.00;97366.28;15263620;19;20045;-73
2022/08/15 19:00:16;;;;;;;2.10;1.80;;;;;;;21.62;100.00;97375.06;15274497;19;20007;-73
2022/08/15 19:05:28;;;;;;;2.15;1.92;;;;;;;21.61;100.00;97404.41;15282733;19;20018;-73
2022/08/15 19:10:50;;;;;;;2.92;2.15;;;;;;;21.53;100.00;97408.41;15288839;19;20729;-73
2022/08/15 19:16:05;;;;;;;3.65;1.90;;;;;;;21.37;100.00;97417.53;15291244;19;20015;-74
2022/08/15 19:21:13;;;;;;;2.92;2.13;;;;;;;21.25;100.00;97423.97;15293876;19;20018;-74
2022/08/15 19:26:37;;;;;;;2.80;2.20;;;;;;;21.21;100.00;97420.09;15280413;19;20330;-74
2022/08/15 19:31:57;;;;;;;2.85;2.08;;;;;;;21.21;100.00;97422.84;15292167;19;20014;-74
2022/08/15 19:37:17;;;;;;;2.30;2.10;;;;;;;21.22;100.00;97429.13;15287921;19;20031;-74
2022/08/15 19:42:37;;;;;;;2.92;2.40;;;;;;;21.22;100.00;97429.13;15290346;19;20018;-74
2022/08/15 19:48:14;;;;;;;3.40;2.40;;;;;;;21.14;100.00;97430.41;15290799;19;20022;-73
2022/08/15 19:53:26;;;;;;;2.53;2.33;;;;;;;21.06;100.00;97445.34;15290280;19;20006;-73
2022/08/15 19:59:01;;;;;;;3.30;2.30;;;;;;;21.02;100.00;97448.84;15279500;19;20026;-73
2022/08/15 20:04:16;;;;;;;2.92;2.20;;;;;;;20.97;100.00;97455.09;15292502;19;20007;-74
2022/08/15 20:09:55;;;;;;;2.78;2.38;;;;;;;20.92;100.00;97442.16;15288488;19;20018;-73
2022/08/15 20:15:19;;;;;;;2.90;2.25;;;;;;;20.90;100.00;97452.53;15289928;19;20009;-74
2022/08/15 20:20:31;;;;;;;2.90;2.63;;;;;;;20.87;100.00;97471.38;15285602;19;20019;-73
2022/08/15 20:25:38;;;;;;;;;;;;;;;20.85;100.00;97470.81;15290288;19;20037;-73
2022/08/15 20:30:53;;;;;;;6.25;2.80;;;;;;;20.83;100.00;97478.44;15274843;19;21096;-73
2022/08/15 20:36:04;;;;;;;4.75;2.50;;;;;;;20.81;100.00;97478.69;15284876;19;20021;-73
2022/08/15 20:41:12;;;;;;;6.10;2.85;;;;;;;20.78;100.00;97480.03;15292116;19;20006;-73
2022/08/15 20:46:30;;;;;;;3.47;2.72;;;;;;;20.78;100.00;97484.66;15295685;19;20007;-72
2022/08/15 20:51:40;;;;;;;2.85;2.40;;;;;;;20.78;100.00;97485.50;15293039;19;20026;-72
2022/08/15 20:57:08;;;;;;;3.45;2.50;;;;;;;20.75;100.00;97490.66;15290463;19;20037;-72
2022/08/15 21:02:44;;;;;;;2.80;2.50;;;;;;;20.72;100.00;97485.66;15283339;19;20029;-73
2022/08/15 21:08:26;;;;;;;3.38;2.50;;;;;;;20.71;100.00;97489.47;15284999;19;20046;-73
2022/08/15 21:13:54;;;;;;;4.95;2.50;;;;;;;20.69;100.00;97491.59;15291323;19;20391;-74
2022/08/15 21:19:14;;;;;;;3.95;2.80;;;;;;;20.68;100.00;97506.38;15288113;19;20021;-73
2022/08/15 21:24:27;;;;;;;3.50;2.95;;;;;;;20.63;100.00;97520.81;15291430;19;20022;-73
2022/08/15 21:29:34;;;;;;;3.60;2.70;;;;;;;20.61;100.00;97522.94;15288005;19;20010;-74
2022/08/15 21:35:02;;;;;;;4.85;2.97;;;;;;;20.60;100.00;97524.03;15277866;19;20029;-73
2022/08/15 21:40:46;;;;;;;3.20;2.75;;;;;;;20.58;100.00;97529.75;15288040;19;20007;-73
2022/08/15 21:45:54;;;;;;;3.42;2.58;;;;;;;20.56;100.00;97526.44;15289701;19;20022;-73
2022/08/15 21:51:23;;;;;;;3.63;2.70;;;;;;;20.53;100.00;97531.59;15293091;19;20411;-73
2022/08/15 21:56:59;;;;;;;3.78;3.00;;;;;;;20.47;100.00;97538.88;15285838;19;20038;-73
2022/08/15 22:02:13;;;;;;;3.10;2.40;;;;;;;20.44;100.00;97539.34;15286745;19;20658;-73
2022/08/15 22:07:38;;;;;;;3.47;2.90;;;;;;;20.37;100.00;97544.19;15274137;19;20026;-79
2022/08/15 22:12:48;;;;;;;3.38;2.80;;;;;;;20.35;100.00;97551.78;15304152;19;20018;-80
2022/08/15 22:18:00;;;;;;;3.67;2.70;;;;;;;20.30;100.00;97549.78;15317090;19;20393;-80
2022/08/15 22:23:25;;;;;;;3.53;3.00;;;;;;;20.23;100.00;97555.41;15319313;19;20367;-78
2022/08/15 22:28:37;;;;;;;3.95;2.80;;;;;;;20.20;100.00;97549.63;15316149;19;20015;-80
2022/08/15 22:34:04;;;;;;;3.65;3.08;;;;;;;20.13;100.00;97555.22;15336207;19;20021;-79
2022/08/15 22:39:21;;;;;;;4.88;2.92;;;;;;;20.07;100.00;97556.19;15335044;19;20014;-78
2022/08/15 22:44:32;;;;;;;3.60;2.70;;;;;;;20.04;100.00;97562.16;15354309;19;20017;-78
2022/08/15 22:49:43;;;;;;;3.88;2.80;;;;;;;19.97;100.00;97563.13;15322219;19;20254;-79
2022/08/15 22:54:49;;;;;;;3.50;3.20;;;;;;;19.91;100.00;97574.19;15325313;19;20010;-78
2022/08/15 22:59:57;;;;;;;4.20;3.08;;;;;;;19.89;100.00;97582.66;15330223;19;20014;-77
2022/08/15 23:05:08;;;;;;;4.38;2.88;;;;;;;19.87;100.00;97582.06;15324534;19;20010;-78
2022/08/15 23:10:22;;;;;;;4.40;2.78;;;;;;;19.88;100.00;97580.16;15320470;19;20613;-78
2022/08/15 23:15:33;;;;;;;5.25;3.45;;;;;;;19.88;100.00;97591.09;15329869;19;20026;-77
2022/08/15 23:20:45;;;;;;;2.95;2.75;;;;;;;19.86;100.00;97600.38;15324837;19;20032;-76
2022/08/15 23:25:51;;;;;;;3.40;3.00;;;;;;;19.83;100.00;97583.56;15311763;19;20025;-80
2022/08/15 23:30:56;;;;;;;5.28;3.10;;;;;;;19.81;100.00;97580.28;15317739;19;20040;-80
2022/08/15 23:36:05;;;;;;;3.80;3.00;;;;;;;19.78;100.00;97588.97;15315988;19;20078;-79
2022/08/15 23:41:15;;;;;;;3.58;3.00;;;;;;;19.69;100.00;97596.69;15309640;19;20041;-80
2022/08/15 23:46:25;;;;;;;3.65;3.10;;;;;;;19.64;100.00;97591.94;15316401;19;20035;-80
2022/08/15 23:51:41;;;;;;;7.63;3.33;;;;;;;19.58;100.00;97598.34;15314676;19;20009;-79
2022/08/15 23:56:46;;;;;;;3.42;3.13;;;;;;;19.51;100.00;97605.88;15312431;19;20040;-79
